Alto, Michigan
Current Conditions -  °F | °C
As of 2:53 AM on Tuesday 21 Oct 2014 (Local Time) from KGRR Reporting Station
Overcast Overcast  
Wind Chill: 44°   Ceiling: 1700
Heat Index: 48°   Visibility: 10mi
Dew Point: 43°   Wind: 8mph
Humidity: 83%   Direction: 330°NNW
Pressure: 29.95"   Gusts: NA
Location:  42.86°N, 85.38°W
Report Text: KGRR 210653Z AUTO 33007KT 10SM OVC017 09/06 A2995 RMK AO2 SLP143 T00890061
Loading
Personal Weather Stations






























Interactive Weather Map New forecast layout! Learn more

10-Day Weather Forecast

Advertisements
Track Severe Weather on mobile